KAPA/APA METAR and TAF weather

Enter ICAO airport designator
Station Type Date Time Source
KAPA METAR 2023/02/05 23:53 UTC NOAA

KAPA 052353Z 02006KT 10SM FEW100 SCT220 07/M04 A2979 RMK AO2 SLP089 T00721044 10122 20072 56015


Station Type Date Time Source
KAPA Decoded METAR 2023/02/05 23:53 UTC NOAA

DENVER CENTENNIAL AIRPORT, CO, United States (KAPA) 39-34N 104-51W 1775M
Feb 05, 2023 - 06:53 PM EST / 2023.02.05 2353 UTC
Wind: from the NNE (020 degrees) at 7 MPH (6 KT):0
Visibility: 10 mile(s):0
Sky conditions: partly cloudy
Temperature: 45.0 F (7.2 C)
Dew Point: 24.1 F (-4.4 C)
Relative Humidity: 43%
Pressure (altimeter): 29.79 in. Hg (1008 hPa)
Pressure tendency: 0.04 inches (1.5 hPa) lower than three hours ago
ob: KAPA 052353Z 02006KT 10SM FEW100 SCT220 07/M04 A2979 RMK AO2 SLP089 T00721044 10122 20072 56015
cycle: 0

Station Type Date Time Source
KAPA TAF 2023/02/05 18:30 UTC NOAA

TAF KAPA 051729Z 0518/0618 VRB04KT P6SM FEW120 BKN200
FM052000 04009KT P6SM SCT220
FM060100 21008KT P6SM FEW220
FM061200 26012KT P6SM SCT120 BKN200
FM061700 02014KT P6SM FEW070 SCT120 SCT170

Example: see airport list